Time;durP1;ratioP1;P1;durP2;ratioP2;P2;SDS_P1;SDS_P2;PMS_P1;PMS_P2;Temp;Humidity;BMP_temperature;BMP_pressure;BME280_temperature;BME280_humidity;BME280_pressure;Samples;Min_cycle;Max_cycle;Signal;HPM_P1;HPM_P2
2022/03/01 00:02:14;;;;;;;22.63;11.00;;;;;;;4.74;49.29;102443.59;5074916;28;20446;-63
2022/03/01 00:04:41;;;;;;;24.65;11.60;;;;;;;4.69;50.19;102440.34;5075079;28;20119;-63
2022/03/01 00:07:07;;;;;;;26.20;11.95;;;;;;;4.43;51.91;102441.59;5074710;28;20071;-63
2022/03/01 00:09:35;;;;;;;22.60;11.35;;;;;;;4.02;52.76;102442.59;5073573;28;20037;-63
2022/03/01 00:12:03;;;;;;;22.63;10.93;;;;;;;3.70;53.46;102446.66;5074694;28;20040;-63
2022/03/01 00:14:30;;;;;;;27.60;11.40;;;;;;;3.66;54.00;102450.34;5074018;28;20488;-63
2022/03/01 00:16:56;;;;;;;26.88;10.18;;;;;;;3.62;54.25;102456.63;5074855;28;20123;-63
2022/03/01 00:19:23;;;;;;;23.77;11.07;;;;;;;3.58;54.40;102449.81;5074621;28;20067;-63
2022/03/01 00:21:50;;;;;;;32.63;12.20;;;;;;;3.52;55.48;102448.31;5073593;28;20040;-63
2022/03/01 00:24:17;;;;;;;27.65;12.40;;;;;;;3.49;55.82;102451.06;5073407;28;20094;-63
2022/03/01 00:26:43;;;;;;;24.85;11.38;;;;;;;3.49;56.47;102444.97;5074343;28;20036;-63
2022/03/01 00:29:11;;;;;;;27.17;11.88;;;;;;;3.50;55.84;102439.66;5073169;28;20041;-63
2022/03/01 00:31:37;;;;;;;25.65;12.43;;;;;;;3.43;55.35;102436.44;5074741;28;20094;-63
2022/03/01 00:34:04;;;;;;;28.45;12.25;;;;;;;3.40;56.23;102435.72;5074449;28;20040;-63
2022/03/01 00:36:31;;;;;;;28.05;11.48;;;;;;;3.29;56.90;102435.34;5072937;28;20037;-63
2022/03/01 00:38:58;;;;;;;26.00;11.73;;;;;;;3.21;57.39;102419.94;5073141;28;20032;-63
2022/03/01 00:41:25;;;;;;;29.33;12.30;;;;;;;3.19;57.19;102427.00;5074059;28;20426;-64
2022/03/01 00:43:51;;;;;;;27.02;12.00;;;;;;;3.25;56.83;102429.38;5056591;28;20090;-63
2022/03/01 00:46:18;;;;;;;30.02;11.90;;;;;;;3.24;57.08;102418.03;5073857;28;20051;-63
2022/03/01 00:48:45;;;;;;;25.83;12.45;;;;;;;3.20;57.96;102423.44;5074030;28;20123;-63
2022/03/01 00:51:11;;;;;;;24.63;11.57;;;;;;;3.20;58.01;102429.56;5073333;28;20048;-63
2022/03/01 00:53:38;;;;;;;25.63;11.48;;;;;;;3.32;57.70;102429.97;5072697;28;20036;-63
2022/03/01 00:56:05;;;;;;;24.05;11.68;;;;;;;3.26;57.65;102425.84;5073512;28;20055;-63
2022/03/01 00:58:32;;;;;;;25.90;11.80;;;;;;;3.30;57.49;102424.78;5072944;28;20052;-63
2022/03/01 01:00:59;;;;;;;28.33;11.07;;;;;;;3.23;58.26;102434.66;5074133;28;20045;-63
2022/03/01 01:03:26;;;;;;;32.13;12.70;;;;;;;3.14;57.99;102429.81;5073793;28;20488;-63
2022/03/01 01:05:53;;;;;;;26.38;12.52;;;;;;;3.08;58.64;102430.09;5073638;28;20052;-63
2022/03/01 01:08:21;;;;;;;29.77;12.77;;;;;;;3.10;58.29;102425.63;5073439;28;20067;-63
2022/03/01 01:10:48;;;;;;;28.02;13.00;;;;;;;3.22;56.35;102425.13;5055917;28;20047;-63
2022/03/01 01:13:16;;;;;;;28.35;12.70;;;;;;;3.28;56.53;102426.63;5073960;28;20048;-63
2022/03/01 01:15:43;;;;;;;29.25;13.35;;;;;;;3.30;56.48;102429.19;5072253;28;20059;-63
2022/03/01 01:18:11;;;;;;;26.77;12.88;;;;;;;3.29;56.79;102423.06;5073459;28;20559;-63
2022/03/01 01:20:37;;;;;;;30.38;12.35;;;;;;;3.34;55.99;102428.97;5073595;28;20040;-63
2022/03/01 01:23:05;;;;;;;29.35;13.13;;;;;;;3.45;55.85;102423.25;5073735;28;20049;-63
2022/03/01 01:25:32;;;;;;;25.70;12.88;;;;;;;3.45;55.84;102429.34;5073852;28;20049;-62
2022/03/01 01:28:00;;;;;;;28.45;13.40;;;;;;;3.49;55.39;102431.84;5077693;28;20044;-62
2022/03/01 01:30:32;;;;;;;29.75;12.70;;;;;;;3.45;56.05;102426.72;5074225;28;20040;-63
2022/03/01 01:32:59;;;;;;;29.83;13.00;;;;;;;3.47;56.38;102426.66;5073391;28;20488;-63
2022/03/01 01:35:28;;;;;;;28.15;13.20;;;;;;;3.39;56.95;102423.53;5073317;28;20068;-64
2022/03/01 01:37:56;;;;;;;26.33;12.80;;;;;;;3.39;56.73;102418.28;5073312;28;20068;-63
2022/03/01 01:40:25;;;;;;;29.40;13.32;;;;;;;3.39;56.59;102420.91;5073171;28;20064;-63
2022/03/01 01:42:53;;;;;;;30.55;12.77;;;;;;;3.37;56.71;102420.97;5071860;28;20037;-63
2022/03/01 01:45:22;;;;;;;28.65;13.25;;;;;;;3.47;56.93;102418.78;5073128;28;20064;-63
2022/03/01 01:47:50;;;;;;;30.00;12.75;;;;;;;3.48;56.71;102412.63;5072960;28;20046;-63
2022/03/01 01:50:20;;;;;;;30.02;12.15;;;;;;;3.43;56.64;102415.44;5072026;28;20389;-63
2022/03/01 01:52:48;;;;;;;28.85;12.48;;;;;;;3.40;56.29;102406.84;5079067;28;20048;-63
2022/03/01 01:55:17;;;;;;;24.50;11.10;;;;;;;3.46;56.17;102404.00;5092868;28;20044;-63
2022/03/01 01:57:44;;;;;;;28.13;11.95;;;;;;;3.49;55.28;102406.44;5091691;28;20071;-63
2022/03/01 02:00:14;;;;;;;26.73;11.13;;;;;;;3.54;54.43;102396.63;5079790;28;20039;-63
2022/03/01 02:02:42;;;;;;;25.92;12.25;;;;;;;3.50;54.52;102396.84;5072783;28;20036;-63
2022/03/01 02:05:09;;;;;;;26.25;11.80;;;;;;;3.48;54.25;102383.78;5072817;28;20093;-63
2022/03/01 02:07:37;;;;;;;25.13;11.35;;;;;;;3.52;53.16;102387.13;5072565;28;20511;-63
2022/03/01 02:10:04;;;;;;;28.02;11.88;;;;;;;3.58;53.75;102397.31;5072782;28;20040;-63
2022/03/01 02:12:31;;;;;;;29.00;11.65;;;;;;;3.65;52.59;102390.88;5072721;28;20492;-63
2022/03/01 02:14:58;;;;;;;26.33;11.45;;;;;;;3.64;53.35;102397.06;5072909;28;20072;-63
2022/03/01 02:17:28;;;;;;;28.75;11.82;;;;;;;3.63;52.97;102400.59;5072699;28;20045;-63
2022/03/01 02:19:54;;;;;;;25.08;11.88;;;;;;;3.75;52.51;102400.06;5072790;28;20060;-63
2022/03/01 02:22:21;;;;;;;24.85;10.93;;;;;;;3.68;52.86;102395.16;5073115;28;20036;-63
2022/03/01 02:24:48;;;;;;;27.98;11.35;;;;;;;3.74;53.13;102394.88;5072705;28;20040;-63
2022/03/01 02:27:14;;;;;;;27.60;11.25;;;;;;;3.73;52.82;102396.66;5055024;28;20403;-63
2022/03/01 02:29:41;;;;;;;22.67;11.18;;;;;;;3.64;52.53;102395.28;5072573;28;20041;-63
2022/03/01 02:32:09;;;;;;;26.00;11.15;;;;;;;3.61;52.23;102394.56;5073005;28;20079;-63
2022/03/01 02:34:37;;;;;;;24.13;10.75;;;;;;;3.60;52.35;102400.72;5071424;28;20040;-63
2022/03/01 02:37:04;;;;;;;28.92;11.52;;;;;;;3.78;52.29;102405.19;5072498;28;20039;-63
2022/03/01 02:39:32;;;;;;;25.10;11.65;;;;;;;3.61;52.55;102407.69;5072911;28;20044;-63
2022/03/01 02:41:59;;;;;;;27.67;10.75;;;;;;;3.69;52.74;102404.72;5072365;28;20454;-63
2022/03/01 02:44:26;;;;;;;23.75;10.63;;;;;;;3.71;53.54;102402.88;5071461;28;20094;-63
2022/03/01 02:46:52;;;;;;;28.40;11.00;;;;;;;3.66;53.67;102408.34;5072462;28;20158;-63
2022/03/01 02:49:19;;;;;;;28.02;11.32;;;;;;;3.64;53.72;102408.41;5072691;28;20539;-63
2022/03/01 02:51:46;;;;;;;24.65;11.55;;;;;;;3.73;53.26;102403.66;5071484;28;20071;-63
2022/03/01 02:54:12;;;;;;;25.30;11.38;;;;;;;3.62;53.32;102410.25;5072643;28;20044;-63
2022/03/01 02:56:39;;;;;;;24.98;11.43;;;;;;;3.61;54.14;102405.91;5071153;28;20049;-63
2022/03/01 02:59:07;;;;;;;25.05;10.95;;;;;;;3.65;53.85;102399.59;5071248;28;20048;-63
2022/03/01 03:01:35;;;;;;;28.25;11.90;;;;;;;3.70;53.41;102393.31;5072338;28;20120;-63
2022/03/01 03:04:02;;;;;;;25.67;11.13;;;;;;;3.65;53.54;102388.25;5071502;28;20131;-63
2022/03/01 03:06:29;;;;;;;23.10;10.70;;;;;;;3.64;53.47;102382.16;5070806;28;20131;-63
2022/03/01 03:08:56;;;;;;;26.55;11.70;;;;;;;3.57;53.66;102388.63;5072672;28;20094;-63
2022/03/01 03:11:23;;;;;;;26.30;11.48;;;;;;;3.53;53.90;102394.94;5072112;28;20111;-63
2022/03/01 03:13:50;;;;;;;29.70;12.02;;;;;;;3.53;54.11;102389.69;5071322;28;20090;-63
2022/03/01 03:16:16;;;;;;;30.45;12.07;;;;;;;3.56;54.15;102392.16;5058325;28;20048;-63
2022/03/01 03:18:44;;;;;;;24.98;11.10;;;;;;;3.56;53.61;102391.31;5075875;28;20121;-63
2022/03/01 03:21:11;;;;;;;27.27;11.48;;;;;;;3.53;53.49;102389.69;5075992;28;20037;-63
2022/03/01 03:23:38;;;;;;;28.63;11.73;;;;;;;3.63;52.80;102387.47;5075974;28;20044;-63
2022/03/01 03:26:05;;;;;;;25.90;11.45;;;;;;;3.60;53.72;102395.47;5074501;28;20067;-63
2022/03/01 03:28:32;;;;;;;27.95;12.63;;;;;;;3.67;52.15;102401.31;5075763;28;20047;-63
2022/03/01 03:30:58;;;;;;;29.70;11.98;;;;;;;3.70;52.94;102388.91;5075626;28;20041;-63
2022/03/01 03:33:25;;;;;;;25.60;11.48;;;;;;;3.59;52.62;102384.16;5076835;28;20040;-62
2022/03/01 03:35:54;;;;;;;25.58;11.20;;;;;;;3.68;52.22;102382.88;5066387;28;20052;-63
2022/03/01 03:38:21;;;;;;;26.67;11.35;;;;;;;3.51;52.84;102385.41;5074476;28;20048;-63
2022/03/01 03:40:47;;;;;;;25.67;10.45;;;;;;;3.53;53.13;102384.44;5074373;28;20090;-63
2022/03/01 03:43:14;;;;;;;24.13;11.80;;;;;;;3.52;53.62;102381.88;5075540;28;20491;-63
2022/03/01 03:45:41;;;;;;;26.02;11.18;;;;;;;3.55;52.72;102387.00;5075622;28;20044;-63
2022/03/01 03:48:08;;;;;;;25.17;10.57;;;;;;;3.65;52.90;102377.75;5074227;28;20064;-63
2022/03/01 03:50:34;;;;;;;24.23;10.82;;;;;;;3.67;53.05;102383.78;5075692;28;20507;-63
2022/03/01 03:53:02;;;;;;;24.23;10.82;;;;;;;3.63;52.69;102371.72;5076964;28;20048;-63
2022/03/01 03:55:29;;;;;;;24.45;10.27;;;;;;;3.58;52.86;102381.59;5093884;28;20044;-63
2022/03/01 03:57:56;;;;;;;27.95;11.30;;;;;;;3.55;53.71;102379.13;5090229;28;20044;-63
2022/03/01 04:00:23;;;;;;;21.08;10.35;;;;;;;3.71;52.94;102371.38;5075126;28;20091;-63
2022/03/01 04:02:52;;;;;;;22.25;10.35;;;;;;;3.61;52.50;102377.06;5057690;28;20384;-63
2022/03/01 04:05:20;;;;;;;26.23;10.80;;;;;;;3.75;51.26;102375.59;5073854;28;20070;-63
2022/03/01 04:07:48;;;;;;;25.27;10.50;;;;;;;3.70;52.27;102382.81;5056954;28;20056;-63
2022/03/01 04:10:15;;;;;;;26.08;10.80;;;;;;;3.79;51.24;102377.16;5073898;28;20045;-63
2022/03/01 04:12:43;;;;;;;24.58;10.60;;;;;;;3.73;52.24;102386.16;5074818;28;20094;-63
2022/03/01 04:15:10;;;;;;;24.23;10.55;;;;;;;3.74;52.32;102387.84;5074764;28;20052;-63
2022/03/01 04:17:38;;;;;;;22.17;10.50;;;;;;;3.61;51.97;102384.09;5074783;28;20040;-63
2022/03/01 04:20:05;;;;;;;22.02;10.13;;;;;;;3.60;52.48;102383.25;5073567;28;20056;-63
2022/03/01 04:22:32;;;;;;;24.92;10.10;;;;;;;3.60;51.25;102385.00;5074916;28;20041;-63
2022/03/01 04:24:58;;;;;;;24.95;11.10;;;;;;;3.59;52.23;102386.78;5074412;28;20044;-63
2022/03/01 04:27:25;;;;;;;24.55;11.27;;;;;;;3.53;52.47;102391.44;5073354;28;20044;-63
2022/03/01 04:29:52;;;;;;;25.95;11.30;;;;;;;3.54;51.61;102388.75;5074361;28;20139;-63
2022/03/01 04:32:18;;;;;;;25.38;10.63;;;;;;;3.56;50.76;102386.06;5073698;28;20044;-63
2022/03/01 04:34:45;;;;;;;24.52;10.90;;;;;;;3.50;50.91;102386.34;5073297;28;20052;-63
2022/03/01 04:37:12;;;;;;;24.70;10.80;;;;;;;3.54;51.49;102380.03;5073338;28;20504;-63
2022/03/01 04:39:39;;;;;;;25.27;10.38;;;;;;;3.52;51.36;102385.34;5074412;28;20395;-63
2022/03/01 04:42:07;;;;;;;26.15;11.00;;;;;;;3.53;51.78;102376.56;5074255;28;20044;-63
2022/03/01 04:44:35;;;;;;;30.98;10.90;;;;;;;3.53;51.11;102384.44;5074359;28;20442;-63
2022/03/01 04:47:03;;;;;;;25.48;10.25;;;;;;;3.38;51.71;102375.44;5074081;28;20040;-63
2022/03/01 04:49:31;;;;;;;25.02;10.32;;;;;;;3.43;51.98;102381.34;5074123;28;20071;-63
2022/03/01 04:51:57;;;;;;;27.08;10.85;;;;;;;3.38;52.03;102391.19;5074153;28;20048;-63
2022/03/01 04:54:24;;;;;;;32.60;11.30;;;;;;;3.45;51.61;102384.75;5073925;28;20071;-63
2022/03/01 04:56:51;;;;;;;23.25;10.55;;;;;;;3.38;51.23;102395.59;5073499;28;20036;-63
2022/03/01 04:59:18;;;;;;;27.10;11.68;;;;;;;3.45;51.40;102394.41;5074083;28;20503;-63
2022/03/01 05:01:44;;;;;;;27.33;10.70;;;;;;;3.48;52.07;102385.56;5073987;28;20041;-63
2022/03/01 05:04:12;;;;;;;27.00;10.45;;;;;;;3.52;51.39;102387.13;5073852;28;20040;-63
2022/03/01 05:06:39;;;;;;;25.52;11.23;;;;;;;3.49;51.40;102392.50;5073539;28;20102;-63
2022/03/01 05:09:06;;;;;;;27.77;11.13;;;;;;;3.39;51.59;102385.03;5074092;28;20486;-63
2022/03/01 05:11:35;;;;;;;24.23;10.60;;;;;;;3.35;51.57;102380.00;5073809;28;20044;-63
2022/03/01 05:14:02;;;;;;;28.83;10.93;;;;;;;3.36;52.07;102382.53;5072400;28;20109;-63
2022/03/01 05:16:29;;;;;;;26.70;10.75;;;;;;;3.39;52.16;102374.53;5073442;28;20040;-63
2022/03/01 05:18:56;;;;;;;24.50;10.55;;;;;;;3.46;51.59;102377.75;5073307;28;20385;-63
2022/03/01 05:21:22;;;;;;;27.15;10.52;;;;;;;3.41;52.03;102385.81;5073883;28;20451;-63
2022/03/01 05:23:49;;;;;;;22.83;10.40;;;;;;;3.42;52.48;102384.03;5073533;28;20067;-63
2022/03/01 05:26:16;;;;;;;28.73;11.48;;;;;;;3.42;52.22;102391.91;5073140;28;20044;-63
2022/03/01 05:28:42;;;;;;;23.52;11.15;;;;;;;3.32;52.34;102401.09;5073378;28;20488;-63
2022/03/01 05:31:09;;;;;;;26.08;10.82;;;;;;;3.50;52.55;102400.31;5073574;28;20048;-63
2022/03/01 05:33:36;;;;;;;27.35;11.27;;;;;;;3.37;52.50;102399.97;5073292;28;20127;-63
2022/03/01 05:36:03;;;;;;;24.80;10.20;;;;;;;3.37;52.14;102401.75;5073331;28;20091;-63
2022/03/01 05:38:30;;;;;;;26.23;11.32;;;;;;;3.34;51.96;102392.25;5073090;28;20483;-63
2022/03/01 05:40:57;;;;;;;30.63;11.32;;;;;;;3.41;52.28;102400.72;5071861;28;20043;-63
2022/03/01 05:43:23;;;;;;;32.63;11.80;;;;;;;3.49;51.71;102393.34;5073501;28;20047;-62
2022/03/01 05:45:50;;;;;;;29.10;11.20;;;;;;;3.56;52.10;102396.56;5056599;28;20488;-63
2022/03/01 05:48:17;;;;;;;25.90;11.68;;;;;;;3.43;51.53;102394.47;5073584;28;20056;-63
2022/03/01 05:50:44;;;;;;;30.48;11.85;;;;;;;3.53;51.01;102400.19;5072868;28;20045;-63
2022/03/01 05:53:11;;;;;;;29.27;12.95;;;;;;;3.48;52.20;102398.69;5071011;28;20101;-63
2022/03/01 05:55:37;;;;;;;28.10;11.50;;;;;;;3.55;51.35;102407.97;5079863;28;20060;-63
2022/03/01 05:58:04;;;;;;;25.90;11.40;;;;;;;3.32;51.64;102411.59;5073119;28;20164;-63
2022/03/01 06:00:31;;;;;;;28.08;11.30;;;;;;;3.34;52.31;102402.72;5072398;28;20091;-63
2022/03/01 06:02:58;;;;;;;27.30;11.68;;;;;;;3.39;51.78;102413.03;5073024;28;20123;-63
2022/03/01 06:05:28;;;;;;;28.02;11.65;;;;;;;3.49;52.03;102414.31;5069605;28;20048;-63
2022/03/01 06:07:56;;;;;;;28.83;11.68;;;;;;;3.43;51.72;102410.19;5072494;28;20045;-63
2022/03/01 06:10:24;;;;;;;32.08;11.50;;;;;;;3.44;51.98;102405.81;5071408;28;20048;-63
2022/03/01 06:12:50;;;;;;;26.83;10.93;;;;;;;3.48;51.48;102411.78;5072863;28;20044;-63
2022/03/01 06:15:17;;;;;;;34.45;12.90;;;;;;;3.28;51.97;102407.41;5072681;28;20093;-63
2022/03/01 06:17:44;;;;;;;26.83;11.98;;;;;;;3.48;52.00;102402.16;5071648;28;20123;-63
2022/03/01 06:20:11;;;;;;;28.33;11.95;;;;;;;3.45;51.65;102400.50;5072889;28;20484;-63
2022/03/01 06:22:40;;;;;;;30.42;12.05;;;;;;;3.31;52.26;102405.50;5071920;28;20058;-63
2022/03/01 06:25:09;;;;;;;28.00;11.48;;;;;;;3.37;51.74;102407.84;5072793;28;20042;-63
2022/03/01 06:27:37;;;;;;;32.67;12.50;;;;;;;3.29;53.06;102404.69;5071385;28;20162;-63
2022/03/01 06:30:05;;;;;;;31.92;12.65;;;;;;;3.38;51.72;102392.97;5071246;28;20131;-63
2022/03/01 06:32:32;;;;;;;27.88;11.55;;;;;;;3.50;52.42;102394.22;5072368;28;20419;-63
2022/03/01 06:34:59;;;;;;;31.55;12.77;;;;;;;3.46;52.46;102394.34;5072921;28;20548;-63
2022/03/01 06:37:30;;;;;;;27.95;12.15;;;;;;;3.44;51.74;102401.41;5072586;28;20401;-63
2022/03/01 06:39:56;;;;;;;31.55;12.60;;;;;;;3.47;52.23;102405.66;5072432;28;20115;-63
2022/03/01 06:42:23;;;;;;;33.45;11.82;;;;;;;3.46;51.92;102409.22;5071206;28;20036;-63
2022/03/01 06:44:50;;;;;;;33.80;12.75;;;;;;;3.46;51.36;102406.59;5071495;28;20131;-63
2022/03/01 06:47:18;;;;;;;30.85;13.10;;;;;;;3.59;52.05;102410.38;5054318;28;20499;-63
2022/03/01 06:49:44;;;;;;;30.67;11.45;;;;;;;3.67;51.34;102417.91;5073880;28;20045;-63
2022/03/01 06:52:14;;;;;;;32.78;12.48;;;;;;;3.62;51.77;102415.50;5075542;28;20433;-63
2022/03/01 06:54:43;;;;;;;33.22;11.88;;;;;;;3.67;51.64;102414.44;5074417;28;20450;-63
2022/03/01 06:57:10;;;;;;;27.15;12.45;;;;;;;3.63;51.14;102411.94;5076091;28;20040;-63
2022/03/01 06:59:37;;;;;;;30.92;12.70;;;;;;;3.69;51.23;102418.69;5074756;28;20404;-63
2022/03/01 07:02:03;;;;;;;30.88;12.90;;;;;;;3.66;51.01;102408.34;5075188;28;20052;-63
2022/03/01 07:04:31;;;;;;;32.75;12.90;;;;;;;3.69;51.37;102420.47;5058535;28;20133;-63
2022/03/01 07:06:59;;;;;;;31.08;12.23;;;;;;;3.67;51.16;102420.53;5074414;28;20053;-63
2022/03/01 07:09:26;;;;;;;29.92;12.68;;;;;;;3.65;51.24;102409.25;5075846;28;20048;-63
2022/03/01 07:11:53;;;;;;;30.17;12.52;;;;;;;3.49;51.11;102411.69;5076017;28;20430;-63
2022/03/01 07:14:20;;;;;;;30.77;12.80;;;;;;;3.56;51.21;102405.25;5058209;28;20109;-63
2022/03/01 07:16:47;;;;;;;34.10;13.05;;;;;;;3.52;50.55;102401.09;5076109;28;20102;-63
2022/03/01 07:19:13;;;;;;;33.55;13.27;;;;;;;3.38;51.78;102392.97;5075476;28;20068;-63
2022/03/01 07:21:40;;;;;;;26.90;11.93;;;;;;;3.54;51.38;102399.22;5076063;28;20040;-63
2022/03/01 07:24:07;;;;;;;31.33;13.30;;;;;;;3.56;51.04;102402.63;5058222;28;20048;-63
2022/03/01 07:26:34;;;;;;;32.10;13.02;;;;;;;3.73;51.00;102409.78;5074284;28;20051;-63
2022/03/01 07:29:00;;;;;;;32.70;12.75;;;;;;;3.67;51.11;102406.56;5074576;28;20110;-63
2022/03/01 07:31:27;;;;;;;40.95;13.95;;;;;;;3.72;50.32;102408.06;5075486;28;20488;-63
2022/03/01 07:33:54;;;;;;;31.60;12.57;;;;;;;3.84;50.37;102418.03;5074752;28;20496;-63
2022/03/01 07:36:21;;;;;;;36.13;13.27;;;;;;;3.79;50.01;102414.75;5068857;28;20094;-63
2022/03/01 07:38:48;;;;;;;28.63;12.27;;;;;;;3.86;49.85;102420.59;5075434;28;20051;-63
2022/03/01 07:41:14;;;;;;;35.33;13.75;;;;;;;3.91;49.63;102423.84;5073830;28;20040;-63
2022/03/01 07:43:41;;;;;;;29.08;12.98;;;;;;;3.97;50.15;102427.97;5073964;28;20097;-63
2022/03/01 07:46:11;;;;;;;28.40;12.20;;;;;;;3.93;49.50;102435.16;5075177;28;20438;-63
2022/03/01 07:48:40;;;;;;;34.42;12.57;;;;;;;4.03;49.54;102425.91;5075214;28;20496;-63
2022/03/01 07:51:07;;;;;;;31.30;13.48;;;;;;;4.16;48.97;102425.34;5075443;28;20072;-63
2022/03/01 07:53:34;;;;;;;34.13;12.75;;;;;;;4.16;49.70;102425.34;5075922;28;20053;-62
2022/03/01 07:56:01;;;;;;;32.90;13.52;;;;;;;4.19;49.19;102422.59;5087795;28;20058;-62
2022/03/01 07:58:28;;;;;;;30.25;12.20;;;;;;;4.18;47.97;102416.50;5095627;28;20043;-63
2022/03/01 08:00:55;;;;;;;30.80;12.50;;;;;;;4.19;48.54;102417.34;5075016;28;20047;-63
2022/03/01 08:03:22;;;;;;;31.92;12.70;;;;;;;4.18;48.33;102419.13;5073983;28;20377;-63
2022/03/01 08:05:49;;;;;;;35.47;13.30;;;;;;;4.30;48.70;102420.31;5073662;28;20040;-63
2022/03/01 08:08:16;;;;;;;33.63;13.85;;;;;;;4.23;48.41;102422.34;5074805;28;20052;-63
2022/03/01 08:10:43;;;;;;;33.58;12.68;;;;;;;4.30;47.86;102422.94;5074805;28;20041;-63
2022/03/01 08:13:18;;;;;;;31.33;13.00;;;;;;;4.45;48.21;102420.50;5088055;28;20075;-63
2022/03/01 08:15:45;;;;;;;32.33;12.82;;;;;;;4.72;47.69;102421.78;5080418;28;20060;-63
2022/03/01 08:18:11;;;;;;;31.50;12.90;;;;;;;4.64;48.12;102418.69;5068981;28;20041;-63
2022/03/01 08:20:38;;;;;;;35.10;13.35;;;;;;;4.76;48.33;102422.50;5068159;28;20078;-63
2022/03/01 08:23:05;;;;;;;36.15;13.85;;;;;;;4.86;47.96;102422.88;5078887;28;20123;-63
2022/03/01 08:25:32;;;;;;;34.70;13.68;;;;;;;4.85;47.62;102423.81;5080108;28;20044;-63
2022/03/01 08:27:59;;;;;;;31.98;12.55;;;;;;;4.75;47.98;102426.91;5086732;28;20484;-62
2022/03/01 08:30:27;;;;;;;31.75;12.50;;;;;;;5.06;46.18;102427.16;5083286;28;20102;-62
2022/03/01 08:32:56;;;;;;;41.28;15.32;;;;;;;5.10;46.71;102426.94;5082938;28;20040;-62
2022/03/01 08:35:23;;;;;;;42.10;16.40;;;;;;;5.18;46.00;102427.41;5083296;28;20143;-62
2022/03/01 08:37:52;;;;;;;34.92;14.10;;;;;;;5.04;45.58;102434.28;5073272;28;20048;-62
2022/03/01 08:40:21;;;;;;;36.40;13.77;;;;;;;5.17;45.78;102430.97;5080320;28;20052;-62
2022/03/01 08:42:48;;;;;;;30.83;12.68;;;;;;;5.08;45.88;102431.41;5083615;28;20036;-62
2022/03/01 08:45:15;;;;;;;34.45;14.88;;;;;;;5.26;46.30;102436.69;5081107;28;20044;-62
2022/03/01 08:47:42;;;;;;;30.65;12.38;;;;;;;5.31;45.36;102429.41;5085665;28;20063;-62
2022/03/01 08:50:10;;;;;;;31.90;13.40;;;;;;;5.30;45.51;102430.34;5085029;28;20093;-63
2022/03/01 08:52:57;;;;;;;32.65;12.85;;;;;;;5.52;45.40;102433.56;5062010;28;20353;-62
2022/03/01 08:55:24;;;;;;;36.28;13.20;;;;;;;5.46;44.65;102435.69;5092880;28;20443;-62
2022/03/01 08:57:50;;;;;;;34.90;13.63;;;;;;;5.58;45.01;102441.16;5093049;28;20147;-62
2022/03/01 09:00:18;;;;;;;36.22;13.93;;;;;;;5.65;44.70;102439.03;5076404;28;20045;-62
2022/03/01 09:02:44;;;;;;;33.97;14.43;;;;;;;5.52;45.06;102436.19;5078700;28;20119;-62
2022/03/01 09:05:12;;;;;;;38.10;13.82;;;;;;;5.61;45.23;102442.75;5091119;28;20423;-63
2022/03/01 09:07:38;;;;;;;34.95;13.45;;;;;;;5.69;44.49;102445.00;5074212;28;20048;-62
2022/03/01 09:10:07;;;;;;;33.65;13.20;;;;;;;5.60;44.86;102463.91;5067343;28;20105;-62
2022/03/01 09:12:33;;;;;;;33.80;13.80;;;;;;;5.47;44.90;102455.78;5077830;28;20050;-62
2022/03/01 09:15:01;;;;;;;36.20;14.02;;;;;;;5.74;45.17;102456.97;5091858;28;20044;-62
2022/03/01 09:17:28;;;;;;;31.23;13.07;;;;;;;5.79;43.87;102443.59;5083637;28;20075;-62
2022/03/01 09:19:55;;;;;;;37.78;14.75;;;;;;;5.60;44.86;102430.50;5070117;28;20095;-63
2022/03/01 09:22:21;;;;;;;35.80;14.43;;;;;;;5.64;44.67;102421.53;5076914;28;20075;-62
2022/03/01 09:24:48;;;;;;;37.10;13.50;;;;;;;5.80;45.18;102415.44;5075849;28;20036;-63
2022/03/01 09:27:15;;;;;;;31.90;13.43;;;;;;;5.77;43.86;102421.75;5084744;28;20051;-62
2022/03/01 09:29:42;;;;;;;35.75;14.27;;;;;;;5.87;45.47;102419.47;5073785;28;20044;-61
2022/03/01 09:32:09;;;;;;;212.38;63.90;;;;;;;5.84;43.97;102424.88;5065472;28;20124;-61
2022/03/01 09:34:36;;;;;;;38.10;14.98;;;;;;;5.92;44.54;102420.06;5086791;28;20105;-61
2022/03/01 09:37:03;;;;;;;33.80;13.55;;;;;;;5.98;44.48;102421.56;5085150;28;20036;-62
2022/03/01 09:39:31;;;;;;;30.88;14.27;;;;;;;6.02;45.14;102420.44;5087054;28;20059;-61
2022/03/01 09:41:59;;;;;;;37.25;14.07;;;;;;;6.19;43.38;102423.03;5089002;28;20035;-62
2022/03/01 09:44:25;;;;;;;32.92;13.82;;;;;;;6.30;42.02;102436.44;5087492;28;20142;-62
2022/03/01 09:46:52;;;;;;;40.28;13.65;;;;;;;6.40;42.30;102442.06;5078927;28;20510;-62
2022/03/01 09:49:19;;;;;;;34.63;13.45;;;;;;;6.45;42.05;102436.53;5080613;28;20033;-62
2022/03/01 09:51:46;;;;;;;32.63;13.80;;;;;;;6.68;42.31;102437.88;5078603;28;20040;-62
2022/03/01 09:54:13;;;;;;;35.35;14.38;;;;;;;7.12;40.42;102429.19;5084337;28;20052;-62
2022/03/01 09:56:40;;;;;;;36.88;14.20;;;;;;;7.03;40.77;102435.84;5092032;28;20032;-62
2022/03/01 09:59:07;;;;;;;35.08;14.10;;;;;;;7.49;40.10;102426.97;5083754;28;20056;-62
2022/03/01 10:01:35;;;;;;;32.60;15.43;;;;;;;7.73;40.20;102432.59;5079794;28;20043;-62
2022/03/01 10:04:08;;;;;;;42.63;15.88;;;;;;;7.96;39.61;102441.72;5082837;28;20070;-62
2022/03/01 10:06:41;;;;;;;34.10;14.07;;;;;;;7.73;39.42;102435.22;5070013;28;20397;-62
2022/03/01 10:09:17;;;;;;;42.80;14.73;;;;;;;7.91;38.86;102435.84;5073004;28;20052;-62
2022/03/01 10:11:48;;;;;;;30.83;13.60;;;;;;;7.50;39.82;102436.63;5082653;28;20051;-62
2022/03/01 10:14:27;;;;;;;36.20;13.85;;;;;;;7.49;40.09;102440.19;5088935;28;20504;-62
2022/03/01 10:16:55;;;;;;;35.78;14.38;;;;;;;7.49;39.54;102442.81;5075269;28;20119;-62
2022/03/01 10:19:22;;;;;;;41.53;14.70;;;;;;;7.72;40.24;102443.25;5044033;28;20053;-62
2022/03/01 10:21:57;;;;;;;35.30;15.05;;;;;;;7.73;39.90;102439.63;5055890;28;20044;-62
2022/03/01 10:24:24;;;;;;;33.25;14.35;;;;;;;7.66;39.57;102433.91;5061650;28;20047;-61
2022/03/01 10:26:58;;;;;;;37.08;15.82;;;;;;;7.55;38.55;102439.84;5086908;28;20045;-63
2022/03/01 10:29:42;;;;;;;33.75;13.73;;;;;;;7.63;39.34;102432.28;5087656;28;20039;-63
2022/03/01 10:32:11;;;;;;;33.72;12.75;;;;;;;7.61;38.38;102441.25;5093570;28;20484;-63
2022/03/01 10:34:38;;;;;;;30.00;12.52;;;;;;;7.41;39.12;102440.66;5074151;28;20048;-63
2022/03/01 10:37:05;;;;;;;31.83;11.98;;;;;;;7.53;39.64;102444.34;5082855;28;20066;-63
2022/03/01 10:39:33;;;;;;;32.60;13.68;;;;;;;7.39;39.89;102446.97;5088830;28;20036;-62
2022/03/01 10:42:03;;;;;;;34.17;13.32;;;;;;;7.69;39.52;102442.50;5090780;28;20036;-63
2022/03/01 10:44:30;;;;;;;30.13;12.80;;;;;;;7.82;39.23;102445.22;5079654;28;20043;-63
2022/03/01 10:47:01;;;;;;;33.95;13.20;;;;;;;7.96;38.78;102447.00;5089123;28;20557;-63
2022/03/01 10:49:32;;;;;;;30.42;13.18;;;;;;;8.35;38.60;102450.75;5050927;28;20483;-63
2022/03/01 10:52:03;;;;;;;29.83;12.52;;;;;;;8.27;39.55;102459.13;5076805;28;20380;-63
2022/03/01 10:54:39;;;;;;;35.30;13.18;;;;;;;8.63;38.12;102456.91;5084953;28;20044;-63
2022/03/01 10:57:08;;;;;;;34.33;12.90;;;;;;;8.78;36.77;102452.41;5086969;28;20059;-63
2022/03/01 10:59:37;;;;;;;27.90;12.90;;;;;;;8.84;37.97;102452.00;5077789;28;20049;-63
2022/03/01 11:02:05;;;;;;;33.83;14.02;;;;;;;8.93;38.04;102446.13;5080043;28;20063;-63
2022/03/01 11:04:33;;;;;;;29.55;12.75;;;;;;;8.83;38.01;102445.03;5078112;28;20032;-63
2022/03/01 11:07:05;;;;;;;28.65;12.65;;;;;;;8.82;36.68;102446.84;5090061;28;20056;-63
2022/03/01 11:09:33;;;;;;;28.80;11.23;;;;;;;9.00;37.33;102438.63;5082803;28;20044;-63
2022/03/01 11:12:03;;;;;;;26.25;12.25;;;;;;;8.89;36.66;102430.53;5083875;28;20513;-63
2022/03/01 11:14:38;;;;;;;29.80;12.70;;;;;;;9.05;36.54;102423.28;5089280;28;20040;-63
2022/03/01 11:17:16;;;;;;;27.67;12.32;;;;;;;9.13;35.33;102420.97;5053538;28;20049;-63
2022/03/01 11:20:06;;;;;;;27.05;12.00;;;;;;;9.17;35.85;102430.41;5098444;28;20040;-63